^^
Grace C. Lehan Memorial Weather Station Historical Data
Daily Summary for June 30, 2021 Units:  English    Metric   Both
Daily Weekly Monthly Yearly
  High: Low: Average:
Temperature: 62.8 °F 50.9 °F 54.8 °F
Dew Point: 51.8 °F 48.1 °F 49.8 °F
Humidity: 90% 67.2% 83%
Wind Speed: 3.9mph 0mph 0.3mph
Wind Gust: 13mph - -
Wind- - WNW
Pressure: 30.05 in 29.97 in -
Precipitation: 0.00 in    
 
 
Tabular Data for June 30, 2021
Time Temperature Dew Point Pressure Wind Wind Speed Wind Gust Humidity Rainfall Rate (Hourly) solar
00:04 54.9 °F 49.8 °F 29.98 in Calm     83% 0.00 in 0 W/m2
00:09 54.9 °F 49.8 °F 29.98 in Calm     83% 0.00 in 0 W/m2
00:14 54.9 °F 49.8 °F 29.98 in Calm     83% 0.00 in 0 W/m2
00:19 54.9 °F 49.9 °F 29.98 in Calm     83% 0.00 in 0 W/m2
00:24 55 °F 49.9 °F 29.98 in Calm     83% 0.00 in 0 W/m2
00:29 55 °F 50.1 °F 29.97 in Calm     83.5% 0.00 in 0 W/m2
00:34 55.1 °F 50.4 °F 29.97 in Calm     84% 0.00 in 0 W/m2
00:39 55.1 °F 50.4 °F 29.97 in Calm     84% 0.00 in 0 W/m2
00:44 55.2 °F 50.5 °F 29.97 in Calm     84% 0.00 in 0 W/m2
00:49 55.2 °F 50.5 °F 29.97 in Calm     84% 0.00 in 0 W/m2
00:54 55.3 °F 50.6 °F 29.97 in Calm     84% 0.00 in 0 W/m2
00:59 55.4 °F 50.6 °F 29.97 in Calm     84% 0.00 in 0 W/m2
01:04 55.4 °F 50.7 °F 29.97 in Calm     84% 0.00 in 0 W/m2
01:09 55.5 °F 50.5 °F 29.97 in Calm     83.4% 0.00 in 0 W/m2
01:14 55.6 °F 50.5 °F 29.97 in Calm     83.2% 0.00 in 0 W/m2
01:19 55.6 °F 50.5 °F 29.97 in Calm     83% 0.00 in 0 W/m2
01:24 55.6 °F 50.4 °F 29.97 in Calm     82.5% 0.00 in 0 W/m2
01:29 55.6 °F 50.4 °F 29.97 in Calm     82.5% 0.00 in 0 W/m2
01:34 55.6 °F 50.5 °F 29.97 in Calm     82.7% 0.00 in 0 W/m2
01:39 55.7 °F 50.4 °F 29.97 in Calm     82.5% 0.00 in 0 W/m2
01:44 55.7 °F 50.6 °F 29.98 in Calm     83% 0.00 in 0 W/m2
01:49 55.8 °F 50.7 °F 29.98 in Calm     83% 0.00 in 0 W/m2
01:54 55.8 °F 50.5 °F 29.98 in Calm     82.5% 0.00 in 0 W/m2
01:59 55.8 °F 50.6 °F 29.98 in Calm     82.6% 0.00 in 0 W/m2
02:04 55.8 °F 50.7 °F 29.98 in Calm     83% 0.00 in 0 W/m2
02:09 55.8 °F 50.7 °F 29.98 in Calm     83% 0.00 in 0 W/m2
02:14 55.8 °F 50.7 °F 29.98 in Calm     82.8% 0.00 in 0 W/m2
02:19 55.8 °F 50.4 °F 29.98 in Calm     82% 0.00 in 0 W/m2
02:24 55.8 °F 50.1 °F 29.98 in Calm     81% 0.00 in 0 W/m2
02:29 55.8 °F 50.1 °F 29.98 in Calm     81.1% 0.00 in 0 W/m2
02:34 55.9 °F 50.5 °F 29.98 in Calm     82% 0.00 in 0 W/m2
02:39 55.9 °F 50.5 °F 29.98 in Calm     82% 0.00 in 0 W/m2
02:44 55.9 °F 50.5 °F 29.98 in Calm     82% 0.00 in 0 W/m2
02:49 55.9 °F 50.5 °F 29.98 in Calm     82% 0.00 in 0 W/m2
02:54 55.9 °F 50.6 °F 29.98 in Calm     82.5% 0.00 in 0 W/m2
02:59 55.9 °F 50.8 °F 29.98 in Calm     83% 0.00 in 0 W/m2
03:04 55.9 °F 50.8 °F 29.98 in Calm     83% 0.00 in 0 W/m2
03:09 55.8 °F 50.7 °F 29.98 in Calm   1 mph 83% 0.00 in 0 W/m2
03:14 55.8 °F 50.7 °F 29.98 in NW 0.1 mph 2 mph 83% 0.00 in 0 W/m2
03:19 55.8 °F 50.7 °F 29.98 in Calm   2 mph 83% 0.00 in 0 W/m2
03:24 55.7 °F 50.7 °F 29.98 in Calm   2 mph 83% 0.00 in 0 W/m2
03:29 55.7 °F 50.6 °F 29.97 in Calm   2 mph 83% 0.00 in 0 W/m2
03:34 55.7 °F 50.6 °F 29.98 in Calm   2 mph 83% 0.00 in 0 W/m2
03:39 55.7 °F 50.6 °F 29.98 in Calm     83% 0.00 in 0 W/m2
03:44 55.7 °F 50.7 °F 29.98 in Calm     83.5% 0.00 in 0 W/m2
03:49 55.6 °F 50.9 °F 29.98 in Calm     84% 0.00 in 0 W/m2
03:54 55.6 °F 50.8 °F 29.98 in Calm     84% 0.00 in 0 W/m2
03:59 55.5 °F 50.8 °F 29.98 in Calm     84% 0.00 in 0 W/m2
04:00 55.5 °F 50.8 °F 29.98 in Calm     84% 0.00 in 0 W/m2
04:09 55.4 °F 50.6 °F 29.99 in Calm     84% 0.00 in 0 W/m2
04:14 55.3 °F 50.5 °F 29.99 in Calm     84% 0.00 in 0 W/m2
04:19 55.2 °F 50.4 °F 29.99 in Calm     84% 0.00 in 0 W/m2
04:24 55.1 °F 50.3 °F 29.99 in NW 0.1 mph 4 mph 84% 0.00 in 0 W/m2
04:29 55 °F 50.2 °F 29.99 in NW 0.3 mph 4 mph 84% 0.00 in 0 W/m2
04:34 54.9 °F 50.2 °F 29.99 in NW 0.3 mph 4 mph 84.2% 0.00 in 0 W/m2
04:39 54.9 °F 50.4 °F 29.99 in Calm   4 mph 85% 0.00 in 0 W/m2
04:44 54.8 °F 50.4 °F 29.99 in Calm   4 mph 85% 0.00 in 0 W/m2
04:49 54.8 °F 50.3 °F 30.00 in Calm   4 mph 85% 0.00 in 0 W/m2
04:54 54.7 °F 50.2 °F 30.00 in Calm   4 mph 84.8% 0.00 in 0 W/m2
04:59 54.6 °F 50.2 °F 30.00 in Calm   4 mph 85% 0.00 in 0 W/m2
05:04 54.4 °F 50 °F 30.00 in Calm   4 mph 85% 0.00 in 0 W/m2
05:09 54.2 °F 49.8 °F 30.00 in Calm     85% 0.00 in 0 W/m2
05:14 54.1 °F 49.8 °F 30.00 in Calm     85.3% 0.00 in 0 W/m2
05:19 54 °F 49.9 °F 30.00 in Calm     86% 0.00 in 0 W/m2
05:24 53.9 °F 49.8 °F 30.00 in Calm     86% 0.00 in 0 W/m2
05:29 53.7 °F 49.7 °F 30.00 in Calm   1 mph 86.1% 0.00 in 0 W/m2
05:34 53.6 °F 49.9 °F 30.00 in Calm   1 mph 87% 0.00 in 0 W/m2
05:39 53.5 °F 49.7 °F 30.00 in Calm     87% 0.00 in 0 W/m2
05:44 53.3 °F 49.6 °F 30.00 in Calm     87% 0.00 in 0 W/m2
05:49 53.2 °F 49.4 °F 30.00 in Calm     87% 0.00 in 0 W/m2
05:54 53 °F 49.3 °F 30.01 in Calm     87% 0.00 in 0 W/m2
05:59 52.9 °F 49.4 °F 30.01 in Calm     87.9% 0.00 in 0 W/m2
06:04 52.8 °F 49.3 °F 30.01 in Calm     87.8% 0.00 in 0 W/m2
06:08 52.7 °F 49.2 °F 30.01 in Calm     88% 0.00 in 0 W/m2
06:14 52.5 °F 49 °F 30.01 in Calm     88% 0.00 in 0 W/m2
06:19 52.3 °F 48.9 °F 30.01 in Calm     88% 0.00 in 0 W/m2
06:24 52.2 °F 48.8 °F 30.02 in Calm     88% 0.00 in 0 W/m2
06:29 52.1 °F 48.9 °F 30.02 in Calm     88.8% 0.00 in 0 W/m2
06:34 51.9 °F 48.7 °F 30.02 in Calm     89% 0.00 in 0 W/m2
06:39 51.7 °F 48.6 °F 30.02 in Calm     89% 0.00 in 0 W/m2
06:44 51.6 °F 48.7 °F 30.02 in Calm     89.7% 0.00 in 0 W/m2
06:49 51.4 °F 48.6 °F 30.02 in Calm     90% 0.00 in 0 W/m2
06:54 51.3 °F 48.5 °F 30.02 in Calm     90% 0.00 in 0 W/m2
06:59 51.2 °F 48.3 °F 30.02 in Calm     90% 0.00 in 5 W/m2
07:04 51 °F 48.2 °F 30.02 in Calm     90% 0.00 in 7 W/m2
07:09 51 °F 48.1 °F 30.03 in Calm     90% 0.00 in 9 W/m2
07:14 50.9 °F 48.1 °F 30.03 in Calm     90% 0.00 in 12 W/m2
07:19 50.9 °F 48.1 °F 30.03 in Calm     90% 0.00 in 12 W/m2
07:24 50.9 °F 48.1 °F 30.04 in NW 0.2 mph 4 mph 90% 0.00 in 14 W/m2
07:29 50.9 °F 48.1 °F 30.03 in Calm   4 mph 90% 0.00 in 14 W/m2
07:34 50.9 °F 48.1 °F 30.04 in Calm   4 mph 90% 0.00 in 16 W/m2
07:39 51 °F 48.2 °F 30.04 in Calm     90% 0.00 in 23 W/m2
07:44 51.1 °F 48.3 °F 30.04 in Calm   2 mph 90% 0.00 in 19 W/m2
07:49 51.3 °F 48.3 °F 30.04 in Calm   2 mph 89.4% 0.00 in 18 W/m2
07:54 51.4 °F 48.3 °F 30.04 in NW 0.1 mph 2 mph 89% 0.00 in 21 W/m2
07:59 51.7 °F 48.3 °F 30.03 in NW 0.1 mph 3 mph 88.3% 0.00 in 28 W/m2
08:09 52.4 °F 48.3 °F 30.03 in NW 0.1 mph 1 mph 86% 0.00 in 21 W/m2
08:14 52.6 °F 48.2 °F 30.04 in NW 1.5 mph 9 mph 85% 0.00 in 33 W/m2
08:19 53 °F 48.2 °F 30.04 in NW 1.8 mph 9 mph 83.6% 0.00 in 39 W/m2
08:24 53.4 °F 48.2 °F 30.04 in NNW 0.7 mph 9 mph 82.3% 0.00 in 39 W/m2
08:29 53.8 °F 48.1 °F 30.04 in North 1.9 mph 9 mph 81.1% 0.00 in 26 W/m2
08:34 54 °F 48.2 °F 30.05 in NW 1.1 mph 9 mph 80.5% 0.00 in 37 W/m2
08:39 54.3 °F 48.2 °F 30.05 in NW 2.7 mph 10 mph 79.7% 0.00 in 72 W/m2
08:44 54.6 °F 48.1 °F 30.04 in North 0.4 mph 10 mph 78.9% 0.00 in 83 W/m2
08:49 54.8 °F 48.1 °F 30.04 in NW 2.1 mph 10 mph 78.2% 0.00 in 46 W/m2
08:54 55 °F 48.3 °F 30.04 in West 1.2 mph 10 mph 78% 0.00 in 56 W/m2
08:59 55.3 °F 48.6 °F 30.05 in NW 3.9 mph 10 mph 78% 0.00 in 69 W/m2
09:04 55.7 °F 48.8 °F 30.05 in WNW 2.6 mph 10 mph 77.7% 0.00 in 313 W/m2
09:09 56.1 °F 49.1 °F 30.05 in NW 3.7 mph 11 mph 77.2% 0.00 in 425 W/m2
09:14 56.9 °F 49.6 °F 30.05 in WNW 1.3 mph 11 mph 76.4% 0.00 in 446 W/m2
09:19 57.9 °F 50 °F 30.05 in WNW 3.9 mph 13 mph 74.7% 0.00 in 480 W/m2
09:24 58.8 °F 50.4 °F 30.05 in NW 1.9 mph 13 mph 73.6% 0.00 in 541 W/m2
09:29 59.7 °F 51 °F 30.05 in NNW 1.3 mph 13 mph 72.9% 0.00 in 559 W/m2
09:34 60.4 °F 51.2 °F 30.05 in NNW 0.1 mph 13 mph 71.6% 0.00 in 582 W/m2
09:39 61 °F 51.4 °F 30.05 in WNW 1.8 mph 6 mph 70.4% 0.00 in 612 W/m2
09:44 61.5 °F 51.1 °F 30.05 in WNW 0.5 mph 6 mph 68.5% 0.00 in 624 W/m2
09:49 61.7 °F 51.1 °F 30.05 in NW 0.6 mph 6 mph 68% 0.00 in 624 W/m2
09:54 61.8 °F 51 °F 30.05 in NW 0.9 mph 6 mph 67.5% 0.00 in 650 W/m2
09:59 62.3 °F 51.6 °F 30.05 in Calm   6 mph 68.1% 0.00 in 652 W/m2
10:03 62.8 °F 51.8 °F 30.05 in NW 0.4 mph 6 mph 67.2% 0.00 in 652 W/m2
Hartford County Weather
Compliments of Weather Underground - 4 mb